Time;durP1;ratioP1;P1;durP2;ratioP2;P2;SDS_P1;SDS_P2;PMS_P1;PMS_P2;Temp;Humidity;BMP_temperature;BMP_pressure;BME280_temperature;BME280_humidity;BME280_pressure;Samples;Min_cycle;Max_cycle;Signal;HPM_P1;HPM_P2
2021/05/01 00:01:02;;;;;;;11.68;7.10;;;15.00;96.50;;;;;;5155720;27;20034;-79
2021/05/01 00:03:27;;;;;;;11.38;6.95;;;14.90;96.50;;;;;;5155515;27;20029;-78
2021/05/01 00:05:53;;;;;;;10.98;6.70;;;14.90;96.60;;;;;;5155243;27;20023;-79
2021/05/01 00:08:19;;;;;;;10.55;6.70;;;14.90;96.70;;;;;;5155521;27;20098;-78
2021/05/01 00:10:44;;;;;;;10.40;6.20;;;14.90;96.70;;;;;;5154982;27;20102;-78
2021/05/01 00:13:11;;;;;;;11.88;7.75;;;14.90;96.70;;;;;;5155051;27;20027;-78
2021/05/01 00:15:37;;;;;;;10.50;6.75;;;14.90;96.70;;;;;;5155426;27;20057;-78
2021/05/01 00:18:03;;;;;;;11.82;6.95;;;14.90;96.70;;;;;;5154900;27;20019;-79
2021/05/01 00:20:29;;;;;;;10.77;7.82;;;14.90;96.60;;;;;;5153925;27;20034;-78
2021/05/01 00:22:55;;;;;;;13.13;6.70;;;14.90;96.50;;;;;;5154797;27;20026;-79
2021/05/01 00:25:21;;;;;;;9.88;6.53;;;14.90;96.50;;;;;;5136761;27;20121;-78
2021/05/01 00:27:46;;;;;;;11.23;6.10;;;14.90;96.40;;;;;;5155578;27;20029;-79
2021/05/01 00:30:12;;;;;;;10.00;6.63;;;14.90;96.40;;;;;;5155032;27;20023;-78
2021/05/01 00:32:39;;;;;;;10.13;6.53;;;14.90;96.40;;;;;;5155256;27;20525;-79
2021/05/01 00:35:06;;;;;;;9.20;6.00;;;14.80;96.40;;;;;;5154753;27;20046;-79
2021/05/01 00:37:31;;;;;;;12.00;6.32;;;14.90;96.50;;;;;;5155336;27;20053;-78
2021/05/01 00:39:57;;;;;;;11.70;6.03;;;14.80;96.40;;;;;;5154955;27;20470;-78
2021/05/01 00:42:23;;;;;;;9.50;6.22;;;14.80;96.40;;;;;;5155591;27;20031;-78
2021/05/01 00:44:48;;;;;;;8.48;6.18;;;14.80;96.40;;;;;;5136349;27;20022;-78
2021/05/01 00:47:14;;;;;;;11.27;6.15;;;14.80;96.30;;;;;;5154948;27;20027;-79
2021/05/01 00:49:39;;;;;;;7.50;5.90;;;14.70;96.50;;;;;;5154819;27;20490;-79
2021/05/01 00:52:06;;;;;;;8.43;6.00;;;14.70;96.10;;;;;;5136301;27;20038;-78
2021/05/01 00:54:31;;;;;;;8.85;5.68;;;14.70;96.10;;;;;;5154575;27;20033;-79
2021/05/01 00:56:58;;;;;;;8.80;5.90;;;14.70;96.10;;;;;;5155320;27;20113;-79
2021/05/01 00:59:24;;;;;;;11.38;6.35;;;14.60;96.10;;;;;;5136264;27;20022;-78
2021/05/01 01:01:51;;;;;;;9.23;6.78;;;14.60;96.10;;;;;;5154773;27;20026;-78
2021/05/01 01:04:17;;;;;;;9.77;7.43;;;14.50;96.10;;;;;;5154646;27;20062;-78
2021/05/01 01:06:44;;;;;;;10.43;7.68;;;14.50;96.20;;;;;;5157725;27;20356;-78
2021/05/01 01:09:11;;;;;;;10.27;7.45;;;14.50;96.20;;;;;;5159017;27;20408;-79
2021/05/01 01:11:37;;;;;;;11.60;7.32;;;14.40;96.20;;;;;;5158539;27;20042;-78
2021/05/01 01:14:04;;;;;;;8.93;7.10;;;14.40;96.20;;;;;;5158387;27;20022;-78
2021/05/01 01:16:30;;;;;;;14.10;7.50;;;14.40;96.20;;;;;;5158599;27;20388;-79
2021/05/01 01:18:57;;;;;;;10.02;7.93;;;14.40;96.20;;;;;;5158944;27;20050;-79
2021/05/01 01:21:23;;;;;;;10.95;8.35;;;14.40;96.20;;;;;;5158843;27;20034;-79
2021/05/01 01:23:49;;;;;;;13.60;9.48;;;14.40;96.20;;;;;;5158930;27;20492;-79
2021/05/01 01:26:15;;;;;;;12.55;8.05;;;14.30;96.20;;;;;;5158619;27;20381;-79
2021/05/01 01:28:41;;;;;;;11.35;8.85;;;14.30;96.20;;;;;;5158415;27;20031;-79
2021/05/01 01:31:07;;;;;;;12.15;9.00;;;14.30;96.20;;;;;;5158412;27;20058;-78
2021/05/01 01:33:34;;;;;;;13.13;8.75;;;14.30;96.20;;;;;;5158475;27;20456;-79
2021/05/01 01:35:59;;;;;;;12.48;9.38;;;14.20;96.10;;;;;;5158086;27;20349;-79
2021/05/01 01:38:25;;;;;;;15.70;9.70;;;14.20;96.20;;;;;;5158290;27;20041;-78
2021/05/01 01:40:51;;;;;;;14.18;9.95;;;14.20;96.20;;;;;;5157925;27;20015;-78
2021/05/01 01:43:18;;;;;;;13.75;10.18;;;14.20;96.30;;;;;;5158432;27;20026;-79
2021/05/01 01:45:44;;;;;;;13.20;9.30;;;14.10;96.30;;;;;;5139420;27;20031;-79
2021/05/01 01:48:10;;;;;;;13.55;9.98;;;14.10;96.20;;;;;;5158126;27;20022;-79
2021/05/01 01:53:57;;;;;;;13.00;9.43;;;14.10;96.20;;;;;;5158273;27;20506;-78
2021/05/01 01:56:25;;;;;;;13.75;8.80;;;14.10;96.30;;;;;;5157773;27;20062;-79
2021/05/01 01:58:51;;;;;;;15.43;9.85;;;14.00;96.20;;;;;;5137237;27;20023;-79
2021/05/01 02:01:16;;;;;;;15.48;9.75;;;14.00;96.30;;;;;;5137075;27;20080;-76
2021/05/01 02:03:42;;;;;;;15.48;9.60;;;14.00;96.30;;;;;;5118284;27;20030;-77
2021/05/01 02:06:08;;;;;;;16.10;9.02;;;14.00;96.30;;;;;;5148215;27;20041;-79
2021/05/01 02:08:34;;;;;;;15.80;9.75;;;13.90;96.30;;;;;;5157968;27;20046;-79
2021/05/01 02:11:00;;;;;;;12.43;8.77;;;13.90;96.30;;;;;;5138877;27;20050;-77
2021/05/01 02:13:25;;;;;;;14.48;8.50;;;13.90;96.20;;;;;;5157557;27;20114;-78
2021/05/01 02:15:51;;;;;;;13.13;9.20;;;13.90;96.20;;;;;;5157351;27;20438;-78
2021/05/01 02:18:17;;;;;;;11.82;8.68;;;13.80;96.20;;;;;;5156223;27;20019;-78
2021/05/01 02:20:42;;;;;;;16.48;8.93;;;13.80;96.20;;;;;;5157173;27;20018;-78
2021/05/01 02:23:08;;;;;;;14.45;9.20;;;13.80;96.20;;;;;;5138962;27;20103;-78
2021/05/01 02:25:35;;;;;;;12.85;8.75;;;13.80;96.30;;;;;;5157275;27;20027;-78
2021/05/01 02:28:01;;;;;;;14.32;9.18;;;13.80;96.20;;;;;;5157483;27;20372;-81
2021/05/01 02:30:28;;;;;;;16.77;9.27;;;13.70;96.20;;;;;;5157154;27;20023;-78
2021/05/01 02:32:54;;;;;;;13.82;9.07;;;13.70;96.20;;;;;;5157509;27;20034;-78
2021/05/01 02:35:23;;;;;;;15.40;9.07;;;13.70;96.20;;;;;;5157706;27;20034;-79
2021/05/01 02:37:49;;;;;;;12.45;8.93;;;13.70;96.30;;;;;;5138891;27;20022;-77
2021/05/01 02:40:17;;;;;;;12.93;9.43;;;13.70;96.30;;;;;;5156812;27;20075;-79
2021/05/01 02:42:44;;;;;;;14.45;9.60;;;13.60;96.30;;;;;;5157123;27;20448;-77
2021/05/01 02:45:14;;;;;;;15.27;9.75;;;13.60;96.30;;;;;;5138470;27;20034;-78
2021/05/01 02:47:40;;;;;;;15.20;9.70;;;13.60;96.40;;;;;;5155982;27;20456;-78
2021/05/01 02:50:08;;;;;;;15.80;10.30;;;13.60;96.40;;;;;;5138432;27;20023;-78
2021/05/01 02:52:34;;;;;;;18.42;11.75;;;13.60;96.50;;;;;;5157517;27;20038;-78
2021/05/01 02:55:00;;;;;;;16.35;10.50;;;13.60;96.60;;;;;;5156900;27;20099;-78
2021/05/01 02:57:26;;;;;;;16.88;10.95;;;13.60;96.60;;;;;;5134617;27;20035;-78
2021/05/01 02:59:51;;;;;;;16.85;10.90;;;13.60;96.60;;;;;;5136515;27;20019;-78
2021/05/01 03:02:17;;;;;;;18.58;11.40;;;13.60;96.60;;;;;;5156463;27;20027;-78
2021/05/01 03:04:43;;;;;;;20.33;11.48;;;13.60;96.70;;;;;;5156597;27;20064;-78
2021/05/01 03:07:09;;;;;;;21.25;11.52;;;13.60;96.70;;;;;;5156495;27;20054;-77
2021/05/01 03:09:35;;;;;;;18.63;11.45;;;13.60;96.80;;;;;;5155995;27;20023;-77
2021/05/01 03:12:00;;;;;;;15.60;11.05;;;13.60;96.90;;;;;;5156149;27;20113;-77
2021/05/01 03:14:26;;;;;;;20.10;11.77;;;13.60;97.00;;;;;;5156200;27;20023;-77
2021/05/01 03:16:53;;;;;;;18.42;11.85;;;13.60;97.10;;;;;;5156473;27;20026;-77
2021/05/01 03:19:19;;;;;;;15.23;10.88;;;13.70;97.20;;;;;;5156298;27;20023;-78
2021/05/01 03:21:45;;;;;;;20.35;13.18;;;13.70;97.30;;;;;;5154771;27;20117;-78
2021/05/01 03:24:12;;;;;;;20.77;13.48;;;13.80;97.40;;;;;;5146838;27;20098;-78
2021/05/01 03:26:38;;;;;;;20.63;14.50;;;13.80;97.40;;;;;;5145727;27;20019;-78
2021/05/01 03:29:04;;;;;;;21.30;13.70;;;13.80;97.40;;;;;;5142027;27;20518;-77
2021/05/01 03:31:30;;;;;;;20.67;13.85;;;13.90;97.50;;;;;;5145342;27;20035;-78
2021/05/01 03:33:56;;;;;;;20.63;14.65;;;13.90;97.50;;;;;;5142773;27;20027;-78
2021/05/01 03:36:21;;;;;;;21.30;13.48;;;14.00;97.60;;;;;;5144961;27;20457;-80
2021/05/01 03:38:47;;;;;;;21.92;14.38;;;14.00;97.60;;;;;;5147780;27;20061;-78
2021/05/01 03:41:13;;;;;;;19.63;13.30;;;14.10;97.70;;;;;;5145331;27;20468;-79
2021/05/01 03:43:38;;;;;;;19.40;13.75;;;14.10;97.70;;;;;;5121259;27;20023;-78
2021/05/01 03:46:04;;;;;;;24.35;14.30;;;14.20;97.70;;;;;;5145812;27;20133;-78
2021/05/01 03:48:30;;;;;;;24.20;14.57;;;14.20;97.80;;;;;;5143557;27;20392;-78
2021/05/01 03:50:56;;;;;;;19.73;13.73;;;14.30;97.80;;;;;;5145360;27;20040;-78
2021/05/01 03:53:22;;;;;;;22.60;14.50;;;14.30;97.80;;;;;;5143432;27;20084;-78
2021/05/01 03:55:48;;;;;;;22.98;14.07;;;14.40;97.90;;;;;;5143860;27;20062;-79
2021/05/01 03:58:14;;;;;;;22.23;13.95;;;14.40;97.90;;;;;;5144595;27;20038;-78
2021/05/01 04:00:40;;;;;;;19.02;13.20;;;14.40;97.90;;;;;;5143054;27;20019;-79
2021/05/01 04:03:05;;;;;;;24.00;13.88;;;14.50;98.00;;;;;;5143946;27;20046;-80
2021/05/01 04:05:31;;;;;;;21.90;13.82;;;14.50;97.90;;;;;;5144702;27;20031;-79
2021/05/01 04:07:57;;;;;;;18.83;12.25;;;14.60;97.90;;;;;;5142651;27;20048;-79
2021/05/01 04:10:23;;;;;;;20.23;13.77;;;14.70;97.90;;;;;;5143222;27;20019;-80
2021/05/01 04:12:48;;;;;;;23.35;13.50;;;14.70;97.90;;;;;;5143357;27;20419;-79
2021/05/01 04:15:14;;;;;;;20.63;13.93;;;14.80;97.90;;;;;;5126180;27;20033;-80
2021/05/01 04:17:40;;;;;;;20.30;13.73;;;14.80;97.90;;;;;;5139463;27;20501;-79
2021/05/01 04:20:07;;;;;;;20.63;14.30;;;14.80;97.80;;;;;;5139130;27;20052;-78
2021/05/01 04:22:33;;;;;;;23.65;14.18;;;14.90;97.70;;;;;;5148408;27;20537;-79
2021/05/01 04:24:59;;;;;;;21.70;13.18;;;14.90;97.70;;;;;;5152173;27;20140;-79
2021/05/01 04:27:25;;;;;;;20.45;13.02;;;14.90;97.70;;;;;;5127396;27;20051;-78
2021/05/01 04:29:51;;;;;;;18.13;11.95;;;15.00;97.70;;;;;;5128062;27;20023;-79
2021/05/01 04:32:17;;;;;;;22.30;12.85;;;15.00;97.80;;;;;;5144103;27;20035;-80
2021/05/01 04:34:42;;;;;;;17.95;12.38;;;15.10;97.80;;;;;;5143868;27;20034;-79
2021/05/01 04:37:08;;;;;;;19.45;12.35;;;15.10;97.80;;;;;;5144990;27;20352;-79
2021/05/01 04:39:34;;;;;;;19.55;12.45;;;15.10;97.60;;;;;;5142766;27;20027;-79
2021/05/01 04:42:01;;;;;;;17.40;10.80;;;15.20;97.60;;;;;;5125901;27;20027;-78
2021/05/01 04:44:27;;;;;;;17.90;10.45;;;15.20;97.80;;;;;;5144951;27;21256;-79
2021/05/01 04:46:53;;;;;;;15.45;10.05;;;15.30;97.70;;;;;;5149059;27;20023;-79
2021/05/01 04:49:19;;;;;;;16.40;9.90;;;15.30;97.70;;;;;;5154608;27;20023;-80
2021/05/01 04:51:45;;;;;;;13.90;9.20;;;15.40;97.70;;;;;;5154348;27;20039;-79
2021/05/01 04:54:12;;;;;;;14.00;9.02;;;15.40;97.60;;;;;;5152929;27;20023;-80
2021/05/01 04:56:38;;;;;;;13.55;8.48;;;15.50;97.60;;;;;;5144964;27;20031;-79
2021/05/01 04:59:05;;;;;;;14.73;9.23;;;15.60;97.70;;;;;;5145353;27;20148;-79
2021/05/01 05:01:31;;;;;;;14.73;8.63;;;15.60;97.50;;;;;;5154252;27;20019;-79
2021/05/01 05:03:56;;;;;;;11.05;7.93;;;15.70;97.60;;;;;;5154708;27;20033;-79
2021/05/01 05:06:22;;;;;;;9.93;7.20;;;15.70;97.70;;;;;;5154680;27;20022;-79
2021/05/01 05:08:48;;;;;;;9.10;6.90;;;15.80;97.70;;;;;;5130083;28;20020;-79
2021/05/01 05:11:13;;;;;;;12.85;7.40;;;15.90;97.60;;;;;;5148569;27;20066;-79
2021/05/01 05:13:39;;;;;;;11.07;7.25;;;16.00;97.60;;;;;;5144377;27;20023;-79
2021/05/01 05:16:05;;;;;;;12.00;8.20;;;16.00;97.50;;;;;;5146638;27;20364;-78
2021/05/01 05:18:31;;;;;;;11.65;7.13;;;16.10;97.80;;;;;;5143401;27;20023;-79
2021/05/01 05:20:59;;;;;;;9.77;7.35;;;16.20;97.60;;;;;;5123796;27;20026;-79
2021/05/01 05:23:24;;;;;;;15.40;8.20;;;16.30;97.60;;;;;;5153706;27;20468;-79
2021/05/01 05:25:50;;;;;;;13.10;8.32;;;16.40;97.70;;;;;;5154046;27;20092;-79
2021/05/01 05:28:16;;;;;;;12.50;7.43;;;16.50;97.60;;;;;;5154676;27;20046;-80
2021/05/01 05:30:42;;;;;;;12.93;8.13;;;16.50;97.40;;;;;;5137121;27;20035;-80
2021/05/01 05:33:07;;;;;;;13.35;8.55;;;16.60;97.30;;;;;;5143353;27;20098;-80
2021/05/01 05:35:33;;;;;;;12.25;7.50;;;16.70;97.30;;;;;;5142676;27;20053;-80
2021/05/01 05:38:01;;;;;;;10.38;7.82;;;16.80;97.20;;;;;;5142179;27;20022;-79
2021/05/01 05:40:27;;;;;;;11.40;7.43;;;16.80;97.00;;;;;;5141069;27;20367;-79
2021/05/01 05:42:53;;;;;;;11.38;8.13;;;16.90;97.10;;;;;;5142695;27;20072;-78
2021/05/01 05:45:26;;;;;;;12.10;8.63;;;16.90;96.70;;;;;;5141939;27;20046;-79
2021/05/01 05:47:53;;;;;;;12.50;8.73;;;17.00;96.80;;;;;;5144301;27;20052;-79
2021/05/01 05:53:34;;;;;;;11.80;7.75;;;17.10;96.30;;;;;;5144312;27;20043;-77
2021/05/01 05:56:00;;;;;;;10.68;8.07;;;17.10;96.50;;;;;;5158472;27;20410;-79
2021/05/01 05:58:25;;;;;;;10.27;7.20;;;17.10;96.20;;;;;;5139296;27;20027;-79
2021/05/01 06:00:51;;;;;;;12.50;7.88;;;17.20;96.10;;;;;;5157318;27;20029;-79
2021/05/01 06:03:18;;;;;;;11.82;7.95;;;17.20;96.10;;;;;;5138812;27;20029;-78
2021/05/01 06:05:54;;;;;;;11.25;7.65;;;17.20;96.20;;;;;;5147603;27;20031;-79
2021/05/01 06:08:20;;;;;;;11.07;7.60;;;17.30;96.20;;;;;;5127617;27;20026;-80
2021/05/01 06:10:47;;;;;;;11.55;8.15;;;17.40;96.20;;;;;;5157404;27;20048;-80
2021/05/01 06:13:14;;;;;;;11.50;7.88;;;17.40;96.10;;;;;;5157207;27;20144;-80
2021/05/01 06:15:40;;;;;;;14.80;8.98;;;17.40;95.90;;;;;;5157297;27;20027;-80
2021/05/01 06:18:07;;;;;;;11.60;8.27;;;17.50;95.80;;;;;;5156593;27;20019;-80
2021/05/01 06:20:33;;;;;;;14.02;8.23;;;17.50;95.70;;;;;;5156930;27;20448;-79
2021/05/01 06:23:02;;;;;;;13.80;10.23;;;17.60;95.50;;;;;;5156883;27;20468;-79
2021/05/01 06:25:28;;;;;;;11.98;7.97;;;17.60;95.50;;;;;;5138446;27;20026;-79
2021/05/01 06:27:54;;;;;;;10.90;8.48;;;17.60;95.50;;;;;;5155975;27;20075;-78
2021/05/01 06:30:24;;;;;;;10.00;7.60;;;17.60;95.40;;;;;;5150469;27;20460;-77
2021/05/01 06:32:51;;;;;;;12.82;7.63;;;17.70;95.40;;;;;;5147547;27;20480;-79
2021/05/01 06:35:17;;;;;;;9.70;7.50;;;17.80;95.30;;;;;;5127350;27;20040;-79
2021/05/01 06:37:44;;;;;;;8.75;7.10;;;17.80;95.30;;;;;;5146328;27;20024;-78
2021/05/01 06:40:15;;;;;;;8.98;6.30;;;17.90;95.20;;;;;;5100895;27;20034;-79
2021/05/01 06:42:48;;;;;;;7.80;6.75;;;17.90;95.00;;;;;;5154272;27;20049;-79
2021/05/01 06:45:16;;;;;;;8.68;6.53;;;17.90;95.40;;;;;;5154597;27;20070;-80
2021/05/01 06:48:07;;;;;;;8.95;5.82;;;18.00;95.00;;;;;;5154537;27;20026;-78
2021/05/01 06:50:33;;;;;;;9.55;6.03;;;18.10;94.90;;;;;;5155948;27;20035;-79
2021/05/01 06:53:01;;;;;;;7.97;5.63;;;18.10;94.80;;;;;;5138093;27;20464;-79
2021/05/01 06:55:29;;;;;;;7.35;5.40;;;18.20;94.70;;;;;;5137320;27;20027;-78
2021/05/01 06:57:56;;;;;;;9.95;6.28;;;18.20;94.30;;;;;;5130887;27;20019;-79
2021/05/01 07:00:24;;;;;;;9.60;6.55;;;18.30;94.20;;;;;;5145110;27;20030;-78
2021/05/01 07:03:05;;;;;;;10.95;7.47;;;18.40;94.30;;;;;;5144756;27;20035;-79
2021/05/01 07:05:31;;;;;;;10.68;7.70;;;18.50;94.40;;;;;;5147104;27;20106;-79
2021/05/01 07:07:57;;;;;;;8.50;6.55;;;18.60;94.60;;;;;;5145632;27;20052;-77
2021/05/01 07:10:23;;;;;;;7.13;5.43;;;18.70;94.40;;;;;;5149436;27;20034;-79
2021/05/01 07:12:49;;;;;;;9.00;6.05;;;18.70;94.10;;;;;;5129936;27;20039;-80
2021/05/01 07:15:17;;;;;;;7.13;4.88;;;18.90;93.80;;;;;;5143194;27;20026;-79
2021/05/01 07:17:50;;;;;;;8.85;4.55;;;19.00;93.10;;;;;;5145604;27;20484;-78
2021/05/01 07:20:17;;;;;;;6.97;5.43;;;19.00;92.50;;;;;;5144110;27;20035;-80
2021/05/01 07:22:43;;;;;;;7.25;5.50;;;19.10;92.60;;;;;;5151868;27;20031;-78
2021/05/01 07:25:11;;;;;;;7.90;5.90;;;19.20;92.50;;;;;;5146119;27;20499;-80
2021/05/01 07:27:49;;;;;;;7.35;5.35;;;19.30;92.20;;;;;;5145179;27;20022;-78
2021/05/01 07:30:17;;;;;;;9.48;6.65;;;19.30;91.70;;;;;;5147121;27;20054;-78
2021/05/01 07:32:45;;;;;;;9.15;6.53;;;19.40;91.90;;;;;;5143020;27;20081;-79
2021/05/01 07:35:14;;;;;;;8.18;6.28;;;19.50;91.90;;;;;;5144103;27;20091;-79
2021/05/01 07:37:41;;;;;;;10.88;6.95;;;19.60;91.80;;;;;;5145501;27;20462;-79
2021/05/01 07:40:11;;;;;;;8.60;6.40;;;19.70;91.50;;;;;;5143954;27;20131;-78
2021/05/01 07:42:39;;;;;;;8.00;6.75;;;19.80;91.30;;;;;;5143117;27;20018;-79
2021/05/01 07:45:06;;;;;;;9.40;6.47;;;20.00;91.10;;;;;;5143606;27;20110;-79
2021/05/01 07:47:33;;;;;;;8.57;6.32;;;20.10;90.90;;;;;;5144009;27;20414;-80
2021/05/01 07:50:00;;;;;;;12.73;6.50;;;20.30;90.50;;;;;;5147011;27;20026;-79
2021/05/01 07:52:30;;;;;;;11.75;5.75;;;20.50;90.20;;;;;;5143576;27;20445;-78
2021/05/01 07:54:57;;;;;;;10.82;6.57;;;20.60;89.30;;;;;;5139071;27;20092;-79
2021/05/01 07:57:23;;;;;;;9.93;6.20;;;20.80;88.70;;;;;;5142264;27;20019;-80
2021/05/01 07:59:48;;;;;;;9.75;6.18;;;20.90;87.90;;;;;;5125655;27;20026;-79
2021/05/01 08:02:14;;;;;;;7.35;6.07;;;21.10;86.60;;;;;;5144310;27;20110;-79
2021/05/01 08:04:41;;;;;;;8.23;6.22;;;21.30;85.30;;;;;;5142442;27;20052;-79
2021/05/01 08:07:07;;;;;;;8.05;5.82;;;21.50;84.10;;;;;;5143724;27;20018;-80
2021/05/01 08:12:54;;;;;;;9.88;6.55;;;22.00;80.90;;;;;;5143944;27;20043;-79
2021/05/01 08:15:20;;;;;;;10.25;6.72;;;22.30;82.50;;;;;;5143771;27;20022;-79
2021/05/01 08:17:46;;;;;;;8.38;5.95;;;22.50;80.20;;;;;;5150500;27;20018;-80
2021/05/01 08:20:14;;;;;;;10.63;6.47;;;22.90;79.30;;;;;;5145706;27;20018;-80
2021/05/01 08:22:41;;;;;;;8.40;6.72;;;23.20;77.50;;;;;;5147158;27;20022;-79
2021/05/01 08:25:10;;;;;;;8.18;6.22;;;23.60;76.20;;;;;;5143843;27;20014;-79
2021/05/01 08:27:36;;;;;;;10.48;6.65;;;23.90;74.70;;;;;;5142463;27;20059;-79
2021/05/01 08:30:04;;;;;;;7.35;6.18;;;24.20;73.60;;;;;;5144936;27;20034;-80
2021/05/01 08:32:30;;;;;;;8.55;6.32;;;24.50;71.70;;;;;;5144268;27;20027;-80
2021/05/01 08:34:56;;;;;;;7.75;6.15;;;24.80;71.50;;;;;;5147366;27;20083;-79
2021/05/01 08:37:22;;;;;;;9.55;7.25;;;25.10;70.60;;;;;;5142576;27;20105;-80
2021/05/01 08:39:47;;;;;;;11.07;6.55;;;25.40;69.50;;;;;;5143788;27;20050;-80
2021/05/01 08:42:13;;;;;;;7.20;5.97;;;25.70;68.50;;;;;;5142837;27;20031;-80
2021/05/01 08:44:39;;;;;;;9.88;6.28;;;26.10;67.70;;;;;;5142168;27;20016;-80
2021/05/01 08:47:06;;;;;;;8.48;6.13;;;26.50;66.90;;;;;;5123690;27;20023;-79
2021/05/01 08:49:31;;;;;;;9.57;6.35;;;26.90;65.20;;;;;;5154379;27;20023;-79
2021/05/01 08:51:58;;;;;;;7.03;6.28;;;27.40;64.50;;;;;;5154228;27;20038;-80
2021/05/01 08:54:24;;;;;;;8.93;6.03;;;27.90;62.60;;;;;;5149036;27;20038;-80
2021/05/01 08:56:50;;;;;;;6.85;6.15;;;28.40;61.20;;;;;;5154045;27;20500;-80
2021/05/01 08:59:16;;;;;;;8.68;5.90;;;28.90;60.00;;;;;;5154466;27;20041;-80
2021/05/01 09:01:42;;;;;;;6.45;5.63;;;29.30;58.90;;;;;;5154644;27;20038;-80
2021/05/01 09:04:10;;;;;;;7.55;5.85;;;29.90;58.10;;;;;;5135766;27;20018;-79
2021/05/01 09:06:36;;;;;;;9.45;5.72;;;30.50;57.00;;;;;;5154462;27;20073;-79
2021/05/01 09:09:11;;;;;;;6.97;5.70;;;31.30;56.20;;;;;;5151930;27;20349;-78
2021/05/01 09:15:00;;;;;;;6.20;5.60;;;32.90;53.50;;;;;;5149861;27;20071;-79
2021/05/01 09:17:26;;;;;;;6.57;5.28;;;33.60;52.50;;;;;;5154032;27;20091;-84
2021/05/01 09:20:03;;;;;;;6.45;5.45;;;34.10;50.20;;;;;;5153935;27;20472;-80
2021/05/01 09:22:28;;;;;;;7.70;5.93;;;34.60;48.00;;;;;;5154123;27;20034;-80
2021/05/01 09:25:06;;;;;;;8.63;5.97;;;35.20;47.50;;;;;;5153769;27;20037;-80
2021/05/01 09:27:32;;;;;;;9.70;5.65;;;35.80;45.50;;;;;;5155833;27;20031;-79
2021/05/01 09:30:12;;;;;;;8.05;5.38;;;36.30;44.80;;;;;;5155138;27;20011;-79
2021/05/01 09:32:38;;;;;;;6.60;5.18;;;36.90;43.20;;;;;;5157608;27;20322;-78
2021/05/01 09:35:06;;;;;;;6.25;5.70;;;37.40;42.90;;;;;;5145039;27;20045;-78
2021/05/01 09:37:32;;;;;;;9.15;5.57;;;37.90;41.10;;;;;;5149526;27;20065;-80
2021/05/01 09:39:59;;;;;;;5.78;5.07;;;38.50;40.40;;;;;;5155620;27;20022;-80
2021/05/01 09:42:28;;;;;;;6.90;5.10;;;39.00;39.50;;;;;;5135311;27;20031;-80
2021/05/01 09:45:08;;;;;;;8.02;6.50;;;39.30;38.30;;;;;;5154305;27;20483;-81
2021/05/01 09:47:34;;;;;;;6.18;5.55;;;39.50;37.30;;;;;;5154688;27;20019;-80
2021/05/01 09:50:23;;;;;;;7.70;5.22;;;39.70;37.00;;;;;;5149235;27;20019;-80
2021/05/01 09:52:59;;;;;;;7.93;5.22;;;40.00;35.80;;;;;;5145572;27;20062;-79
2021/05/01 09:55:53;;;;;;;8.18;5.57;;;40.40;34.70;;;;;;5118991;27;20024;-79
2021/05/01 09:58:25;;;;;;;7.10;5.40;;;40.60;34.30;;;;;;5137241;27;20057;-79
2021/05/01 10:00:53;;;;;;;6.03;5.43;;;40.70;33.60;;;;;;5137215;27;20027;-79
2021/05/01 10:03:24;;;;;;;7.25;5.35;;;40.90;33.30;;;;;;5137118;27;20132;-80
2021/05/01 10:05:52;;;;;;;6.30;5.68;;;41.10;32.70;;;;;;5137369;27;20030;-80
2021/05/01 10:08:20;;;;;;;8.38;5.13;;;41.30;32.20;;;;;;5137054;27;20461;-80
2021/05/01 10:10:49;;;;;;;5.90;5.10;;;41.40;32.20;;;;;;5150977;27;20060;-80
2021/05/01 10:13:15;;;;;;;8.50;5.60;;;41.70;32.00;;;;;;5157518;27;20035;-80
2021/05/01 10:15:42;;;;;;;6.78;5.32;;;41.90;31.70;;;;;;5148449;27;20027;-79
2021/05/01 10:18:13;;;;;;;9.15;5.55;;;41.70;30.90;;;;;;5131377;27;20093;-80
2021/05/01 10:20:46;;;;;;;6.20;5.60;;;41.00;30.50;;;;;;5147983;27;20026;-80
2021/05/01 10:23:13;;;;;;;6.30;5.57;;;40.10;30.90;;;;;;5127771;27;20464;-80
2021/05/01 10:25:39;;;;;;;7.38;5.65;;;39.50;31.50;;;;;;5145885;27;20396;-79
2021/05/01 10:28:14;;;;;;;11.27;6.05;;;38.70;31.50;;;;;;5143858;27;20023;-79
2021/05/01 10:30:47;;;;;;;6.80;5.35;;;38.10;31.70;;;;;;5146680;27;20019;-79
2021/05/01 10:33:37;;;;;;;6.00;5.40;;;38.20;31.50;;;;;;5156784;27;20045;-78
2021/05/01 10:36:10;;;;;;;5.07;4.30;;;38.70;30.60;;;;;;5147022;27;20039;-78
2021/05/01 10:38:38;;;;;;;4.30;3.90;;;38.50;29.90;;;;;;5150479;27;20060;-78
2021/05/01 10:41:12;;;;;;;5.43;4.57;;;38.20;29.50;;;;;;5157067;27;20083;-77
2021/05/01 10:43:38;;;;;;;5.18;4.30;;;38.00;29.70;;;;;;5138992;27;20067;-76
2021/05/01 10:46:11;;;;;;;5.95;4.65;;;37.20;29.70;;;;;;5156352;27;20523;-78
2021/05/01 10:48:48;;;;;;;7.72;4.60;;;36.10;29.60;;;;;;5155144;27;20030;-77
2021/05/01 10:51:37;;;;;;;6.70;4.88;;;35.70;30.20;;;;;;5155304;27;20147;-77
2021/05/01 10:54:14;;;;;;;5.80;3.85;;;35.90;30.80;;;;;;5150089;27;20074;-76
2021/05/01 10:56:45;;;;;;;4.88;4.20;;;36.50;30.70;;;;;;5156455;27;20507;-77
2021/05/01 10:59:14;;;;;;;7.95;4.45;;;37.20;30.30;;;;;;5156686;27;20388;-77
2021/05/01 11:01:48;;;;;;;4.65;4.25;;;37.90;30.00;;;;;;5156621;27;20107;-76
2021/05/01 11:04:28;;;;;;;8.63;5.00;;;37.60;29.90;;;;;;5155990;27;20122;-76
2021/05/01 11:07:31;;;;;;;9.63;5.47;;;37.30;30.10;;;;;;5155874;27;20437;-76
2021/05/01 11:10:04;;;;;;;6.35;5.40;;;37.90;30.10;;;;;;5145044;27;20425;-78
2021/05/01 11:12:35;;;;;;;10.32;5.97;;;38.40;29.80;;;;;;5143110;27;20041;-77
2021/05/01 11:15:11;;;;;;;5.47;4.57;;;38.60;29.90;;;;;;5155368;27;20026;-77
2021/05/01 11:17:41;;;;;;;7.78;5.50;;;38.80;29.50;;;;;;5155208;27;20034;-77
2021/05/01 11:20:11;;;;;;;5.30;4.43;;;38.90;29.20;;;;;;5155288;27;20022;-77
2021/05/01 11:22:39;;;;;;;7.97;4.53;;;39.00;29.30;;;;;;5155190;27;20717;-77
2021/05/01 11:25:11;;;;;;;9.20;4.10;;;39.10;29.20;;;;;;5155250;27;20019;-77
2021/05/01 11:27:39;;;;;;;7.70;4.15;;;39.20;29.20;;;;;;5135971;27;20383;-77
2021/05/01 11:30:06;;;;;;;7.35;4.32;;;39.20;29.20;;;;;;5116692;27;20058;-77
2021/05/01 11:32:32;;;;;;;4.85;3.60;;;39.50;29.10;;;;;;5153715;27;20404;-76
2021/05/01 11:35:09;;;;;;;7.22;4.13;;;39.70;29.00;;;;;;5156167;27;20031;-77
2021/05/01 11:37:49;;;;;;;7.55;3.95;;;40.00;28.50;;;;;;5156200;27;20027;-77
2021/05/01 11:40:17;;;;;;;9.95;3.95;;;40.20;28.40;;;;;;5155985;27;20363;-76
2021/05/01 11:42:44;;;;;;;6.35;3.97;;;40.40;28.40;;;;;;5136994;27;21039;-77
2021/05/01 11:45:17;;;;;;;5.30;4.10;;;40.50;28.20;;;;;;5153982;27;20090;-77
2021/05/01 11:47:52;;;;;;;8.52;4.30;;;40.80;28.30;;;;;;5151044;27;20035;-77
2021/05/01 11:50:19;;;;;;;4.82;4.03;;;41.10;28.40;;;;;;5155317;27;20057;-77
2021/05/01 11:53:03;;;;;;;5.50;4.35;;;41.30;28.30;;;;;;5154384;27;20037;-78
2021/05/01 11:55:32;;;;;;;7.45;4.30;;;41.60;28.40;;;;;;5135452;27;20077;-76
2021/05/01 11:58:03;;;;;;;4.50;3.67;;;42.10;28.20;;;;;;5154102;27;20122;-77
2021/05/01 12:00:37;;;;;;;8.13;4.07;;;42.60;27.90;;;;;;5151172;27;20026;-81
2021/05/01 12:03:20;;;;;;;4.32;3.88;;;42.80;27.50;;;;;;5129098;27;20025;-77
2021/05/01 12:05:52;;;;;;;4.90;4.15;;;42.80;27.40;;;;;;5144824;27;20015;-78
2021/05/01 12:08:21;;;;;;;5.50;4.10;;;42.70;27.50;;;;;;5144478;27;20031;-76
2021/05/01 12:10:49;;;;;;;4.85;4.05;;;42.70;27.70;;;;;;5141987;27;20075;-76
2021/05/01 12:13:31;;;;;;;8.00;5.43;;;42.70;27.50;;;;;;5142773;27;20042;-76
2021/05/01 12:15:58;;;;;;;6.45;4.57;;;42.80;27.40;;;;;;5143784;27;20051;-75
2021/05/01 12:18:51;;;;;;;7.72;4.38;;;42.90;27.30;;;;;;5143095;27;20050;-76
2021/05/01 12:21:22;;;;;;;8.52;4.25;;;42.90;27.10;;;;;;5120340;27;20038;-75
2021/05/01 12:23:55;;;;;;;4.55;4.15;;;42.90;27.00;;;;;;5141743;27;20019;-77
2021/05/01 12:26:36;;;;;;;;;;;43.00;27.00;;;;;;5141336;27;20030;-76
2021/05/01 12:29:26;;;;;;;8.05;4.45;;;43.10;27.70;;;;;;5144032;27;19907;-75
2021/05/01 12:31:54;;;;;;;6.50;5.30;;;43.30;27.10;;;;;;5129395;27;20041;-76
2021/05/01 12:34:41;;;;;;;10.10;5.90;;;43.40;27.00;;;;;;5143022;27;20065;-76
2021/05/01 12:37:09;;;;;;;15.20;7.40;;;43.50;26.90;;;;;;5146133;27;20023;-76
2021/05/01 12:39:36;;;;;;;8.68;7.07;;;43.60;27.10;;;;;;5142066;27;20067;-76
2021/05/01 12:42:18;;;;;;;7.45;6.75;;;43.70;27.00;;;;;;5137588;27;20031;-77
2021/05/01 12:44:47;;;;;;;15.40;8.70;;;43.60;26.80;;;;;;5141567;27;20079;-77
2021/05/01 12:47:35;;;;;;;9.27;7.72;;;43.60;27.00;;;;;;5145056;27;20024;-76
2021/05/01 12:50:20;;;;;;;8.93;7.88;;;43.70;26.80;;;;;;5144865;27;20027;-76
2021/05/01 12:52:46;;;;;;;8.27;7.47;;;43.60;26.70;;;;;;5144652;27;20533;-76
2021/05/01 12:55:14;;;;;;;11.10;6.50;;;43.40;26.80;;;;;;5144772;27;20011;-76
2021/05/01 12:57:40;;;;;;;10.35;5.57;;;43.10;26.80;;;;;;5145133;27;20046;-77
2021/05/01 13:00:24;;;;;;;10.73;6.85;;;42.80;26.90;;;;;;5143869;27;20054;-76